createdAt,value
2023-02-23T00:00:08.654Z,87
2023-02-23T00:01:08.138Z,87
2023-02-23T00:02:07.636Z,87
2023-02-23T00:03:08.724Z,87
2023-02-23T00:04:08.656Z,87
2023-02-23T00:05:08.652Z,87
2023-02-23T00:06:08.067Z,87
2023-02-23T00:09:08.362Z,87
2023-02-23T00:10:08.089Z,87
2023-02-23T00:11:08.517Z,87
2023-02-23T00:12:08.190Z,87
2023-02-23T00:13:07.963Z,87
2023-02-23T00:14:08.821Z,87
2023-02-23T00:15:08.559Z,87
2023-02-23T00:16:08.024Z,87
2023-02-23T00:17:08.574Z,87
2023-02-23T00:18:08.585Z,87
2023-02-23T00:19:08.370Z,87
2023-02-23T00:20:08.481Z,87
2023-02-23T00:21:07.949Z,87
2023-02-23T00:23:08.569Z,87
2023-02-23T00:24:08.270Z,87
2023-02-23T00:25:09.491Z,87
2023-02-23T00:26:08.222Z,87
2023-02-23T00:27:07.933Z,87
2023-02-23T00:28:08.671Z,87
2023-02-23T00:29:08.176Z,87
2023-02-23T00:30:08.402Z,87
2023-02-23T00:32:09.567Z,87
2023-02-23T00:33:08.220Z,87
2023-02-23T00:34:08.052Z,87
2023-02-23T00:35:07.859Z,87
2023-02-23T00:36:08.290Z,87
2023-02-23T00:37:07.651Z,87
2023-02-23T00:38:08.611Z,87
2023-02-23T00:39:08.182Z,86
2023-02-23T00:40:07.837Z,87
2023-02-23T00:41:08.360Z,86
2023-02-23T00:42:08.081Z,87
2023-02-23T00:43:07.681Z,86
2023-02-23T00:44:08.637Z,86
2023-02-23T00:45:08.236Z,86
2023-02-23T00:46:08.799Z,86
2023-02-23T00:47:08.284Z,86
2023-02-23T00:49:07.948Z,86
2023-02-23T00:50:08.515Z,86
2023-02-23T00:51:08.216Z,86
2023-02-23T00:53:10.643Z,86
2023-02-23T00:54:08.366Z,86
2023-02-23T00:55:08.191Z,86
2023-02-23T00:56:08.796Z,86
2023-02-23T00:57:08.138Z,86
2023-02-23T00:58:08.239Z,86
2023-02-23T00:59:07.866Z,86
2023-02-23T01:00:07.856Z,86
2023-02-23T01:01:08.036Z,86
2023-02-23T01:02:08.685Z,86
2023-02-23T01:03:08.239Z,86
2023-02-23T01:04:07.962Z,86
2023-02-23T01:05:07.612Z,86
2023-02-23T01:08:08.589Z,86
2023-02-23T01:09:08.159Z,86
2023-02-23T01:10:08.145Z,86
2023-02-23T01:11:08.101Z,86
2023-02-23T01:12:08.040Z,86
2023-02-23T01:13:08.630Z,86
2023-02-23T01:15:08.199Z,86
2023-02-23T01:16:08.812Z,86
2023-02-23T01:17:08.233Z,86
2023-02-23T01:18:08.312Z,86
2023-02-23T01:19:08.028Z,86
2023-02-23T01:20:08.712Z,86
2023-02-23T01:21:08.593Z,86
2023-02-23T01:22:08.248Z,86
2023-02-23T01:23:07.957Z,86
2023-02-23T01:24:08.740Z,86
2023-02-23T01:25:08.631Z,86
2023-02-23T01:26:08.067Z,86
2023-02-23T01:27:08.825Z,86
2023-02-23T01:28:08.512Z,86
2023-02-23T01:30:08.133Z,86
2023-02-23T01:33:08.651Z,86
2023-02-23T01:34:08.472Z,86
2023-02-23T01:35:08.306Z,86
2023-02-23T01:36:08.351Z,86
2023-02-23T01:37:08.204Z,86
2023-02-23T01:38:08.067Z,86
2023-02-23T01:39:08.600Z,86
2023-02-23T01:41:08.652Z,86
2023-02-23T01:43:07.976Z,86
2023-02-23T01:44:07.787Z,86
2023-02-23T01:45:08.569Z,86
2023-02-23T01:46:08.236Z,86
2023-02-23T01:47:08.692Z,86
2023-02-23T01:48:08.572Z,86
2023-02-23T01:49:08.235Z,86
2023-02-23T01:50:08.139Z,86
2023-02-23T01:51:08.149Z,86
2023-02-23T01:52:08.924Z,86
2023-02-23T01:53:08.549Z,86
2023-02-23T01:54:08.271Z,86
2023-02-23T01:55:08.052Z,86
2023-02-23T01:56:08.318Z,86
2023-02-23T01:57:08.214Z,86
2023-02-23T01:58:07.789Z,86
2023-02-23T01:59:07.795Z,86
2023-02-23T02:00:08.744Z,86
2023-02-23T02:01:08.307Z,86
2023-02-23T02:02:08.184Z,86
2023-02-23T02:03:08.023Z,86
2023-02-23T02:04:08.729Z,86
2023-02-23T02:05:08.821Z,86
2023-02-23T02:06:08.632Z,86
2023-02-23T02:08:07.931Z,86
2023-02-23T02:09:07.746Z,86
2023-02-23T02:10:08.651Z,86
2023-02-23T02:11:07.813Z,86
2023-02-23T02:14:08.114Z,86
2023-02-23T02:15:08.739Z,86
2023-02-23T02:16:08.499Z,86
2023-02-23T02:19:08.311Z,86
2023-02-23T02:20:07.984Z,86
2023-02-23T02:21:08.379Z,86
2023-02-23T02:22:06.566Z,86
2023-02-23T02:23:08.617Z,86
2023-02-23T02:24:08.429Z,86
2023-02-23T02:25:08.159Z,86
2023-02-23T02:26:08.045Z,86
2023-02-23T02:27:07.858Z,86
2023-02-23T02:28:08.645Z,86
2023-02-23T02:29:08.597Z,86
2023-02-23T02:30:08.240Z,86
2023-02-23T02:31:08.897Z,86
2023-02-23T02:32:08.356Z,86
2023-02-23T02:33:07.872Z,86
2023-02-23T02:34:08.554Z,86
2023-02-23T02:35:08.720Z,86
2023-02-23T02:36:08.450Z,86
2023-02-23T02:37:08.466Z,86
2023-02-23T02:38:08.355Z,86
2023-02-23T02:39:08.040Z,86
2023-02-23T02:40:08.706Z,86
2023-02-23T02:41:08.144Z,86
2023-02-23T02:42:07.880Z,86
2023-02-23T02:43:08.374Z,86
2023-02-23T02:44:08.339Z,86
2023-02-23T02:45:07.985Z,86
2023-02-23T02:46:08.604Z,86
2023-02-23T02:47:08.169Z,86
2023-02-23T02:49:08.782Z,86
2023-02-23T02:50:08.597Z,86
2023-02-23T02:51:07.927Z,86
2023-02-23T02:52:07.777Z,86
2023-02-23T02:53:08.399Z,86
2023-02-23T02:55:08.166Z,86
2023-02-23T02:56:08.293Z,86
2023-02-23T02:57:07.987Z,86
2023-02-23T02:58:08.088Z,86
2023-02-23T02:59:07.756Z,86
2023-02-23T03:00:08.390Z,86
2023-02-23T03:01:08.769Z,86
2023-02-23T03:02:08.531Z,86
2023-02-23T03:03:08.246Z,86
2023-02-23T03:04:08.013Z,86
2023-02-23T03:05:08.247Z,86
2023-02-23T03:06:07.968Z,86
2023-02-23T03:07:08.797Z,86
2023-02-23T03:08:08.400Z,86
2023-02-23T03:09:07.989Z,86
2023-02-23T03:10:08.010Z,86
2023-02-23T03:11:07.809Z,86
2023-02-23T03:12:07.826Z,86
2023-02-23T03:13:08.513Z,86
2023-02-23T03:14:08.032Z,86
2023-02-23T03:15:08.018Z,86
2023-02-23T03:17:07.916Z,86
2023-02-23T03:18:08.694Z,86
2023-02-23T03:19:08.639Z,86
2023-02-23T03:20:08.627Z,86
2023-02-23T03:21:08.611Z,86
2023-02-23T03:22:08.416Z,86
2023-02-23T03:23:08.072Z,86
2023-02-23T03:24:09.411Z,86
2023-02-23T03:25:08.478Z,86
2023-02-23T03:26:08.419Z,86
2023-02-23T03:27:08.453Z,86
2023-02-23T03:28:08.284Z,86
2023-02-23T03:29:07.921Z,87
2023-02-23T03:30:08.748Z,87
2023-02-23T03:31:08.068Z,87
2023-02-23T03:32:09.484Z,87
2023-02-23T03:33:08.873Z,87
2023-02-23T03:34:08.619Z,86
2023-02-23T03:35:08.214Z,87
2023-02-23T03:37:08.270Z,87
2023-02-23T03:38:08.123Z,87
2023-02-23T03:40:08.848Z,87
2023-02-23T03:41:08.113Z,87
2023-02-23T03:43:08.714Z,87
2023-02-23T03:44:08.496Z,87
2023-02-23T03:45:08.153Z,87
2023-02-23T03:46:08.238Z,87
2023-02-23T03:47:08.561Z,87
2023-02-23T03:48:08.602Z,87
2023-02-23T03:49:08.417Z,87
2023-02-23T03:50:08.145Z,87
2023-02-23T03:51:08.698Z,87
2023-02-23T03:52:08.446Z,87
2023-02-23T03:53:08.128Z,87
2023-02-23T03:55:08.727Z,87
2023-02-23T03:56:08.734Z,87
2023-02-23T03:57:08.682Z,87
2023-02-23T03:58:08.201Z,87
2023-02-23T03:59:08.166Z,87
2023-02-23T04:00:08.027Z,87
2023-02-23T04:01:08.424Z,87
2023-02-23T04:02:08.455Z,87
2023-02-23T04:03:07.895Z,87
2023-02-23T04:04:08.571Z,87
2023-02-23T04:05:08.312Z,87
2023-02-23T04:06:08.506Z,87
2023-02-23T04:07:08.269Z,87
2023-02-23T04:08:07.983Z,87
2023-02-23T04:09:08.594Z,87
2023-02-23T04:10:08.470Z,87
2023-02-23T04:11:07.982Z,87
2023-02-23T04:12:07.900Z,87
2023-02-23T04:13:08.371Z,87
2023-02-23T04:14:08.360Z,87
2023-02-23T04:15:08.131Z,87
2023-02-23T04:16:08.437Z,87
2023-02-23T04:17:08.202Z,87
2023-02-23T04:19:08.672Z,87
2023-02-23T04:20:08.387Z,87
2023-02-23T04:21:08.256Z,87
2023-02-23T04:22:08.544Z,87
2023-02-23T04:24:08.164Z,87
2023-02-23T04:25:07.706Z,87
2023-02-23T04:26:08.071Z,87
2023-02-23T04:27:07.563Z,87
2023-02-23T04:28:08.488Z,87
2023-02-23T04:29:08.261Z,87
2023-02-23T04:30:08.202Z,87
2023-02-23T04:31:08.346Z,87
2023-02-23T04:32:08.428Z,87
2023-02-23T04:33:08.664Z,87
2023-02-23T04:34:08.438Z,87
2023-02-23T04:35:08.166Z,87
2023-02-23T04:36:08.474Z,87
2023-02-23T04:37:08.249Z,87
2023-02-23T04:38:07.772Z,87
2023-02-23T04:39:08.546Z,87
2023-02-23T04:42:08.075Z,87
2023-02-23T04:43:07.921Z,87
2023-02-23T04:45:08.482Z,87
2023-02-23T04:46:08.259Z,87
2023-02-23T04:47:07.764Z,87
2023-02-23T04:48:08.435Z,87
2023-02-23T04:49:08.401Z,87
2023-02-23T04:50:08.311Z,87
2023-02-23T04:51:08.423Z,87
2023-02-23T04:53:08.143Z,87
2023-02-23T04:54:08.985Z,87
2023-02-23T04:55:08.656Z,87
2023-02-23T04:56:08.716Z,87
2023-02-23T04:57:08.401Z,87
2023-02-23T04:58:08.243Z,87
2023-02-23T04:59:07.773Z,87
2023-02-23T05:00:08.652Z,87
2023-02-23T05:01:08.178Z,87
2023-02-23T05:02:08.890Z,87
2023-02-23T05:03:08.528Z,87
2023-02-23T05:04:08.217Z,87
2023-02-23T05:05:08.200Z,87
2023-02-23T05:06:08.311Z,87
2023-02-23T05:08:08.847Z,87
2023-02-23T05:09:08.449Z,87
2023-02-23T05:10:08.125Z,87
2023-02-23T05:11:08.276Z,87
2023-02-23T05:12:08.093Z,87
2023-02-23T05:14:08.636Z,87
2023-02-23T05:15:08.401Z,87
2023-02-23T05:17:10.642Z,87
2023-02-23T05:19:08.833Z,87
2023-02-23T05:21:08.225Z,87
2023-02-23T05:22:08.016Z,87
2023-02-23T05:23:08.461Z,87
2023-02-23T05:24:08.469Z,87
2023-02-23T05:25:08.393Z,87
2023-02-23T05:26:08.547Z,87
2023-02-23T05:27:08.245Z,87
2023-02-23T05:28:08.110Z,87
2023-02-23T05:29:07.916Z,87
2023-02-23T05:31:09.124Z,87
2023-02-23T05:32:09.181Z,87
2023-02-23T05:33:08.218Z,87
2023-02-23T05:35:08.639Z,87
2023-02-23T05:36:07.812Z,87
2023-02-23T05:37:08.548Z,87
2023-02-23T05:38:08.232Z,87
2023-02-23T05:39:08.068Z,87
2023-02-23T05:40:08.755Z,87
2023-02-23T05:41:08.193Z,87
2023-02-23T05:42:08.071Z,87
2023-02-23T05:43:08.782Z,87
2023-02-23T05:44:08.457Z,87
2023-02-23T05:45:08.133Z,87
2023-02-23T05:47:08.327Z,87
2023-02-23T05:48:08.224Z,87
2023-02-23T05:49:07.967Z,87
2023-02-23T05:50:08.383Z,87
2023-02-23T05:52:08.605Z,87
2023-02-23T05:53:08.357Z,87
2023-02-23T05:55:08.118Z,87
2023-02-23T05:56:08.353Z,87
2023-02-23T05:57:08.308Z,87
2023-02-23T05:58:07.958Z,87
2023-02-23T05:59:08.678Z,87
2023-02-23T06:00:08.517Z,87
2023-02-23T06:02:08.122Z,87
2023-02-23T06:03:08.788Z,87
2023-02-23T06:04:10.722Z,87
2023-02-23T06:05:07.964Z,87
2023-02-23T06:06:08.572Z,87
2023-02-23T06:07:07.918Z,87
2023-02-23T06:08:08.522Z,87
2023-02-23T06:09:08.269Z,87
2023-02-23T06:10:08.266Z,87
2023-02-23T06:11:08.165Z,87
2023-02-23T06:12:07.906Z,87
2023-02-23T06:13:08.647Z,87
2023-02-23T06:14:08.397Z,87
2023-02-23T06:15:08.128Z,87
2023-02-23T06:16:09.140Z,87
2023-02-23T06:17:08.331Z,87
2023-02-23T06:19:08.730Z,87
2023-02-23T06:20:08.654Z,87
2023-02-23T06:21:08.699Z,87
2023-02-23T06:22:08.362Z,87
2023-02-23T06:23:08.037Z,87
2023-02-23T06:24:07.863Z,87
2023-02-23T06:25:08.587Z,87
2023-02-23T06:26:07.953Z,87
2023-02-23T06:28:08.515Z,87
2023-02-23T06:30:08.326Z,87
2023-02-23T06:31:08.771Z,87
2023-02-23T06:32:08.622Z,87
2023-02-23T06:33:07.950Z,87
2023-02-23T06:34:08.744Z,87
2023-02-23T06:35:08.580Z,87
2023-02-23T06:36:07.860Z,87
2023-02-23T06:37:11.256Z,87
2023-02-23T06:38:08.457Z,87
2023-02-23T06:39:08.248Z,87
2023-02-23T06:40:08.108Z,87
2023-02-23T06:41:07.593Z,87
2023-02-23T06:42:08.536Z,87
2023-02-23T06:43:08.086Z,87
2023-02-23T06:45:07.959Z,87
2023-02-23T06:46:08.033Z,87
2023-02-23T06:47:07.918Z,87
2023-02-23T06:48:08.761Z,87
2023-02-23T06:50:08.165Z,87
2023-02-23T06:51:08.359Z,87
2023-02-23T06:52:08.266Z,87
2023-02-23T06:53:07.872Z,87
2023-02-23T06:54:08.692Z,87
2023-02-23T06:55:08.414Z,87
2023-02-23T06:56:08.002Z,87
2023-02-23T06:57:08.807Z,87
2023-02-23T06:58:08.507Z,87
2023-02-23T07:00:08.110Z,87
2023-02-23T07:01:08.587Z,87
2023-02-23T07:02:08.683Z,87
2023-02-23T07:03:07.948Z,87
2023-02-23T07:04:08.210Z,87
2023-02-23T07:05:08.676Z,87
2023-02-23T07:06:08.046Z,87
2023-02-23T07:07:08.601Z,87
2023-02-23T07:08:08.661Z,87
2023-02-23T07:10:07.699Z,87
2023-02-23T07:11:08.042Z,87
2023-02-23T07:13:08.561Z,87
2023-02-23T07:14:15.241Z,87
2023-02-23T07:15:08.236Z,87
2023-02-23T07:16:08.412Z,87
2023-02-23T07:17:08.042Z,87
2023-02-23T07:18:07.980Z,87
2023-02-23T07:19:08.499Z,87
2023-02-23T07:20:08.506Z,87
2023-02-23T07:21:08.701Z,87
2023-02-23T07:23:08.073Z,87
2023-02-23T07:24:07.967Z,87
2023-02-23T07:26:08.139Z,87
2023-02-23T07:27:07.947Z,87
2023-02-23T07:28:08.578Z,87
2023-02-23T07:29:08.247Z,87
2023-02-23T07:30:08.162Z,87
2023-02-23T07:31:08.539Z,87
2023-02-23T07:32:08.468Z,87
2023-02-23T07:34:08.558Z,87
2023-02-23T07:36:08.549Z,87
2023-02-23T07:37:08.243Z,87
2023-02-23T07:38:08.222Z,87
2023-02-23T07:39:08.233Z,87
2023-02-23T07:40:08.186Z,87
2023-02-23T07:42:08.522Z,87
2023-02-23T07:43:08.295Z,87
2023-02-23T07:44:08.196Z,87
2023-02-23T07:45:08.118Z,86
2023-02-23T07:46:09.020Z,86
2023-02-23T07:47:07.968Z,86
2023-02-23T07:48:08.816Z,86
2023-02-23T07:49:08.493Z,86
2023-02-23T07:50:08.342Z,86
2023-02-23T07:51:11.122Z,86
2023-02-23T07:52:08.411Z,86
2023-02-23T07:53:08.073Z,87
2023-02-23T07:54:07.962Z,86
2023-02-23T07:55:08.590Z,86
2023-02-23T07:56:07.912Z,86
2023-02-23T07:57:08.699Z,86
2023-02-23T07:58:08.188Z,86
2023-02-23T07:59:08.029Z,86
2023-02-23T08:00:07.576Z,86
2023-02-23T08:01:08.334Z,86
2023-02-23T08:02:07.826Z,86
2023-02-23T08:03:08.611Z,86
2023-02-23T08:04:08.589Z,86
2023-02-23T08:05:08.286Z,86
2023-02-23T08:06:08.433Z,86
2023-02-23T08:07:08.109Z,85
2023-02-23T08:08:08.624Z,85
2023-02-23T08:10:08.373Z,85
2023-02-23T08:11:08.101Z,85
2023-02-23T08:12:07.923Z,85
2023-02-23T08:13:08.948Z,85
2023-02-23T08:14:08.576Z,85
2023-02-23T08:15:08.221Z,85
2023-02-23T08:16:08.194Z,85
2023-02-23T08:17:08.353Z,85
2023-02-23T08:18:08.555Z,85
2023-02-23T08:19:08.526Z,85
2023-02-23T08:20:08.246Z,85
2023-02-23T08:21:08.555Z,85
2023-02-23T08:23:07.998Z,85
2023-02-23T08:24:07.877Z,85
2023-02-23T08:25:07.860Z,85
2023-02-23T08:26:08.068Z,85
2023-02-23T08:27:08.705Z,84
2023-02-23T08:28:10.834Z,84
2023-02-23T08:30:08.099Z,84
2023-02-23T08:31:08.851Z,84
2023-02-23T08:32:08.696Z,84
2023-02-23T08:33:08.550Z,84
2023-02-23T08:35:08.347Z,84
2023-02-23T08:36:08.653Z,84
2023-02-23T08:37:08.696Z,84
2023-02-23T08:38:08.085Z,84
2023-02-23T08:39:07.713Z,84
2023-02-23T08:40:08.743Z,84
2023-02-23T08:41:08.038Z,84
2023-02-23T08:42:08.263Z,84
2023-02-23T08:43:08.149Z,84
2023-02-23T08:44:08.600Z,84
2023-02-23T08:45:10.701Z,84
2023-02-23T08:46:08.577Z,84
2023-02-23T08:47:08.042Z,84
2023-02-23T08:48:08.771Z,84
2023-02-23T08:49:08.614Z,83
2023-02-23T08:50:08.268Z,83
2023-02-23T08:51:08.456Z,83
2023-02-23T08:52:08.290Z,83
2023-02-23T08:53:08.192Z,83
2023-02-23T08:54:08.651Z,83
2023-02-23T08:55:08.407Z,83
2023-02-23T08:56:08.743Z,83
2023-02-23T08:58:08.272Z,83
2023-02-23T09:00:08.685Z,83
2023-02-23T09:01:08.112Z,83
2023-02-23T09:03:08.789Z,83
2023-02-23T09:04:08.317Z,82
2023-02-23T09:05:08.120Z,82
2023-02-23T09:06:08.797Z,82
2023-02-23T09:07:08.331Z,82
2023-02-23T09:08:08.191Z,82
2023-02-23T09:09:07.956Z,82
2023-02-23T09:10:08.925Z,82
2023-02-23T09:11:08.495Z,82
2023-02-23T09:12:08.332Z,81
2023-02-23T09:14:07.761Z,81
2023-02-23T09:16:08.257Z,82
2023-02-23T09:17:08.625Z,82
2023-02-23T09:18:08.343Z,81
2023-02-23T09:19:08.247Z,81
2023-02-23T09:20:08.103Z,81
2023-02-23T09:22:07.962Z,81
2023-02-23T09:23:08.592Z,81
2023-02-23T09:24:08.723Z,81
2023-02-23T09:25:08.470Z,81
2023-02-23T09:26:08.855Z,81
2023-02-23T09:27:08.302Z,81
2023-02-23T09:28:07.880Z,80
2023-02-23T09:29:08.610Z,80
2023-02-23T09:30:08.420Z,80
2023-02-23T09:31:09.543Z,80
2023-02-23T09:32:09.259Z,80
2023-02-23T09:34:08.247Z,80
2023-02-23T09:35:08.256Z,80
2023-02-23T09:36:08.346Z,80
2023-02-23T09:37:08.154Z,80
2023-02-23T09:38:08.643Z,80
2023-02-23T09:39:08.569Z,80
2023-02-23T09:40:08.288Z,80
2023-02-23T09:41:08.238Z,79
2023-02-23T09:42:08.851Z,79
2023-02-23T09:43:08.605Z,79
2023-02-23T09:44:08.131Z,79
2023-02-23T09:45:07.909Z,79
2023-02-23T09:46:08.589Z,79
2023-02-23T09:47:08.150Z,79
2023-02-23T09:48:08.006Z,79
2023-02-23T09:49:08.810Z,79
2023-02-23T09:50:08.632Z,78
2023-02-23T09:51:07.913Z,78
2023-02-23T09:52:08.400Z,78
2023-02-23T09:53:09.193Z,78
2023-02-23T09:54:07.920Z,78
2023-02-23T09:55:08.792Z,78
2023-02-23T09:56:07.979Z,78
2023-02-23T09:58:08.600Z,78
2023-02-23T09:59:10.054Z,77
2023-02-23T10:00:08.181Z,77
2023-02-23T10:01:08.182Z,77
2023-02-23T10:02:07.885Z,77
2023-02-23T10:03:08.833Z,76
2023-02-23T10:04:08.661Z,76
2023-02-23T10:06:08.081Z,76
2023-02-23T10:07:08.377Z,76
2023-02-23T10:09:08.121Z,76
2023-02-23T10:10:08.267Z,76
2023-02-23T10:11:08.081Z,76
2023-02-23T10:12:08.102Z,76
2023-02-23T10:13:08.450Z,76
2023-02-23T10:14:08.501Z,76
2023-02-23T10:15:08.321Z,75
2023-02-23T10:16:08.790Z,75
2023-02-23T10:17:08.257Z,76
2023-02-23T10:18:09.654Z,75
2023-02-23T10:19:08.632Z,75
2023-02-23T10:20:08.400Z,75
2023-02-23T10:21:08.401Z,75
2023-02-23T10:22:08.355Z,76
2023-02-23T10:23:08.168Z,76
2023-02-23T10:24:08.017Z,75
2023-02-23T10:25:08.728Z,75
2023-02-23T10:26:08.749Z,75
2023-02-23T10:27:08.566Z,75
2023-02-23T10:28:08.242Z,75
2023-02-23T10:29:07.916Z,75
2023-02-23T10:30:08.752Z,75
2023-02-23T10:31:08.428Z,75
2023-02-23T10:33:08.460Z,75
2023-02-23T10:34:08.199Z,75
2023-02-23T10:35:08.887Z,75
2023-02-23T10:36:19.312Z,75
2023-02-23T10:37:08.150Z,75
2023-02-23T10:38:07.892Z,75
2023-02-23T10:39:08.683Z,75
2023-02-23T10:40:08.185Z,75
2023-02-23T10:41:07.848Z,75
2023-02-23T10:42:08.737Z,75
2023-02-23T10:43:08.518Z,75
2023-02-23T10:44:22.002Z,75
2023-02-23T10:45:08.033Z,75
2023-02-23T10:47:07.908Z,75
2023-02-23T10:48:08.938Z,75
2023-02-23T10:49:08.466Z,75
2023-02-23T10:50:08.466Z,75
2023-02-23T10:51:08.740Z,75
2023-02-23T10:52:08.661Z,75
2023-02-23T10:53:08.244Z,75
2023-02-23T10:54:14.409Z,75
2023-02-23T10:55:08.057Z,75
2023-02-23T10:56:08.448Z,75
2023-02-23T10:57:08.166Z,75
2023-02-23T10:58:08.035Z,76
2023-02-23T10:59:08.776Z,75
2023-02-23T11:00:08.515Z,75
2023-02-23T11:01:08.592Z,76
2023-02-23T11:02:09.396Z,76
2023-02-23T11:03:08.140Z,76
2023-02-23T11:04:12.655Z,76
2023-02-23T11:05:08.805Z,76
2023-02-23T11:06:08.712Z,76
2023-02-23T11:08:08.171Z,76
2023-02-23T11:09:09.590Z,76
2023-02-23T11:10:08.636Z,76
2023-02-23T11:11:08.779Z,76
2023-02-23T11:12:08.365Z,76
2023-02-23T11:13:08.497Z,76
2023-02-23T11:14:08.210Z,76
2023-02-23T11:15:07.876Z,76
2023-02-23T11:17:07.635Z,76
2023-02-23T11:18:07.674Z,76
2023-02-23T11:19:07.841Z,76
2023-02-23T11:21:08.233Z,76
2023-02-23T11:22:08.717Z,76
2023-02-23T11:23:20.416Z,76
2023-02-23T11:24:08.197Z,76
2023-02-23T11:25:07.891Z,76
2023-02-23T11:26:08.396Z,76
2023-02-23T11:27:07.841Z,76
2023-02-23T11:28:08.760Z,76
2023-02-23T11:29:08.305Z,76
2023-02-23T11:30:08.294Z,76
2023-02-23T11:32:14.789Z,76
2023-02-23T11:33:07.931Z,76
2023-02-23T11:34:08.705Z,76
2023-02-23T11:35:08.474Z,76
2023-02-23T11:36:08.679Z,76
2023-02-23T11:37:08.479Z,76
2023-02-23T11:38:09.762Z,76
2023-02-23T11:39:07.683Z,76
2023-02-23T11:40:08.847Z,76
2023-02-23T11:41:07.818Z,76
2023-02-23T11:42:08.771Z,76
2023-02-23T11:43:08.811Z,76
2023-02-23T11:44:12.046Z,76
2023-02-23T11:45:08.283Z,76
2023-02-23T11:46:08.855Z,76
2023-02-23T11:47:08.683Z,76
2023-02-23T11:48:08.118Z,76
2023-02-23T11:49:07.990Z,76
2023-02-23T11:50:08.984Z,76
2023-02-23T11:51:07.758Z,76
2023-02-23T11:53:08.175Z,76
2023-02-23T11:54:10.353Z,76
2023-02-23T11:55:08.010Z,76
2023-02-23T11:56:08.351Z,76
2023-02-23T11:57:07.965Z,77
2023-02-23T11:58:08.553Z,77
2023-02-23T11:59:08.077Z,77
2023-02-23T12:00:08.254Z,77
2023-02-23T12:01:09.580Z,77
2023-02-23T12:02:08.166Z,77
2023-02-23T12:03:08.124Z,77
2023-02-23T12:04:08.745Z,77
2023-02-23T12:05:08.628Z,77
2023-02-23T12:07:08.426Z,77
2023-02-23T12:08:08.587Z,77
2023-02-23T12:09:08.196Z,77
2023-02-23T12:10:08.018Z,77
2023-02-23T12:11:08.397Z,77
2023-02-23T12:12:08.348Z,76
2023-02-23T12:13:07.987Z,77
2023-02-23T12:14:08.663Z,76
2023-02-23T12:15:08.289Z,76
2023-02-23T12:16:08.237Z,76
2023-02-23T12:17:11.219Z,76
2023-02-23T12:19:08.392Z,76
2023-02-23T12:20:07.985Z,76
2023-02-23T12:21:08.525Z,76
2023-02-23T12:22:08.391Z,76
2023-02-23T12:23:08.076Z,76
2023-02-23T12:24:07.944Z,76
2023-02-23T12:25:08.747Z,76
2023-02-23T12:26:08.657Z,76
2023-02-23T12:27:08.410Z,76
2023-02-23T12:28:24.122Z,76
2023-02-23T12:29:07.917Z,76
2023-02-23T12:30:11.716Z,76
2023-02-23T12:31:08.387Z,76
2023-02-23T12:33:08.830Z,76
2023-02-23T12:34:08.709Z,76
2023-02-23T12:35:08.464Z,76
2023-02-23T12:36:08.383Z,76
2023-02-23T12:37:08.060Z,76
2023-02-23T12:38:07.808Z,76
2023-02-23T12:39:08.480Z,76
2023-02-23T12:40:08.491Z,76
2023-02-23T12:41:08.552Z,76
2023-02-23T12:42:08.178Z,76
2023-02-23T12:43:08.007Z,76
2023-02-23T12:44:08.691Z,76
2023-02-23T12:45:08.485Z,76
2023-02-23T12:46:11.737Z,76
2023-02-23T12:47:08.312Z,76
2023-02-23T12:48:08.419Z,76
2023-02-23T12:49:08.012Z,76
2023-02-23T12:50:07.781Z,76
2023-02-23T12:51:08.040Z,76
2023-02-23T12:52:07.809Z,75
2023-02-23T12:54:08.284Z,75
2023-02-23T12:55:08.000Z,75
2023-02-23T12:56:08.335Z,75
2023-02-23T12:57:10.754Z,75
2023-02-23T12:58:07.790Z,75
2023-02-23T12:59:08.791Z,75
2023-02-23T13:00:08.211Z,75
2023-02-23T13:01:08.346Z,75
2023-02-23T13:02:08.686Z,75
2023-02-23T13:03:07.679Z,75
2023-02-23T13:04:08.758Z,75
2023-02-23T13:06:07.830Z,75
2023-02-23T13:07:11.559Z,75
2023-02-23T13:08:19.281Z,75
2023-02-23T13:09:08.339Z,75
2023-02-23T13:10:07.763Z,75
2023-02-23T13:11:07.869Z,75
2023-02-23T13:12:07.951Z,75
2023-02-23T13:14:08.663Z,75
2023-02-23T13:15:08.283Z,75
2023-02-23T13:16:08.456Z,75
2023-02-23T13:17:08.180Z,75
2023-02-23T13:18:08.021Z,75
2023-02-23T13:19:11.084Z,75
2023-02-23T13:20:08.556Z,75
2023-02-23T13:21:08.716Z,75
2023-02-23T13:22:08.407Z,75
2023-02-23T13:23:08.173Z,75
2023-02-23T13:24:07.823Z,74
2023-02-23T13:25:11.175Z,74
2023-02-23T13:26:07.963Z,74
2023-02-23T13:27:07.893Z,74
2023-02-23T13:29:08.283Z,74
2023-02-23T13:30:08.315Z,74
2023-02-23T13:31:12.227Z,74
2023-02-23T13:32:08.999Z,74
2023-02-23T13:33:07.999Z,74
2023-02-23T13:34:08.835Z,74
2023-02-23T13:35:08.633Z,74
2023-02-23T13:36:08.788Z,74
2023-02-23T13:37:08.219Z,74
2023-02-23T13:38:08.061Z,74
2023-02-23T13:39:22.447Z,74
2023-02-23T13:40:08.512Z,74
2023-02-23T13:42:07.936Z,74
2023-02-23T13:43:08.695Z,74
2023-02-23T13:44:08.304Z,74
2023-02-23T13:46:08.442Z,74
2023-02-23T13:47:08.028Z,74
2023-02-23T13:48:08.846Z,74
2023-02-23T13:49:08.830Z,74
2023-02-23T13:50:08.311Z,74
2023-02-23T13:51:08.352Z,74
2023-02-23T13:52:08.137Z,74
2023-02-23T13:53:08.959Z,74
2023-02-23T13:54:08.697Z,74
2023-02-23T13:55:08.573Z,74
2023-02-23T13:56:10.452Z,74
2023-02-23T13:57:07.989Z,73
2023-02-23T13:58:07.722Z,73
2023-02-23T13:59:08.731Z,73
2023-02-23T14:00:08.728Z,73
2023-02-23T14:01:08.317Z,73
2023-02-23T14:02:09.342Z,73
2023-02-23T14:03:08.611Z,73
2023-02-23T14:04:08.266Z,73
2023-02-23T14:06:07.924Z,73
2023-02-23T14:07:08.018Z,73
2023-02-23T14:08:08.417Z,73
2023-02-23T14:09:08.549Z,73
2023-02-23T14:10:08.317Z,73
2023-02-23T14:11:08.118Z,73
2023-02-23T14:12:08.290Z,73
2023-02-23T14:14:07.858Z,73
2023-02-23T14:15:08.459Z,73
2023-02-23T14:16:08.748Z,73
2023-02-23T14:17:08.650Z,73
2023-02-23T14:18:08.292Z,73
2023-02-23T14:19:08.146Z,73
2023-02-23T14:20:18.050Z,73
2023-02-23T14:21:07.878Z,73
2023-02-23T14:22:08.711Z,73
2023-02-23T14:23:08.380Z,73
2023-02-23T14:24:08.101Z,73
2023-02-23T14:25:08.170Z,73
2023-02-23T14:26:08.195Z,73
2023-02-23T14:27:07.907Z,73
2023-02-23T14:28:08.684Z,73
2023-02-23T14:30:08.378Z,73
2023-02-23T14:31:12.348Z,73
2023-02-23T14:32:09.063Z,73
2023-02-23T14:33:25.876Z,73
2023-02-23T14:34:08.760Z,73
2023-02-23T14:35:08.645Z,73
2023-02-23T14:36:08.881Z,73
2023-02-23T14:37:08.561Z,73
2023-02-23T14:38:08.330Z,73
2023-02-23T14:39:07.857Z,73
2023-02-23T14:40:08.864Z,73
2023-02-23T14:42:07.892Z,73
2023-02-23T14:43:08.522Z,73
2023-02-23T14:44:12.431Z,73
2023-02-23T14:45:08.642Z,73
2023-02-23T14:46:08.190Z,72
2023-02-23T14:47:08.396Z,73
2023-02-23T14:48:08.299Z,73
2023-02-23T14:49:08.265Z,73
2023-02-23T14:50:08.092Z,73
2023-02-23T14:56:08.253Z,73
2023-02-23T14:57:07.902Z,73
2023-02-23T14:58:08.725Z,73
2023-02-23T14:59:08.530Z,73
2023-02-23T15:00:08.355Z,73
2023-02-23T15:01:07.727Z,73
2023-02-23T15:02:08.871Z,73
2023-02-23T15:05:08.288Z,73
2023-02-23T15:07:07.798Z,73
2023-02-23T15:08:08.708Z,73
2023-02-23T15:09:08.371Z,73
2023-02-23T15:10:08.320Z,73
2023-02-23T15:11:08.444Z,73
2023-02-23T15:12:08.526Z,73
2023-02-23T15:13:07.882Z,73
2023-02-23T15:14:26.768Z,73
2023-02-23T15:15:08.675Z,73
2023-02-23T15:17:08.358Z,72
2023-02-23T15:18:08.637Z,72
2023-02-23T15:19:08.209Z,72
2023-02-23T15:20:21.491Z,72
2023-02-23T15:21:08.703Z,72
2023-02-23T15:22:07.973Z,72
2023-02-23T15:23:09.129Z,72
2023-02-23T15:24:08.579Z,72
2023-02-23T15:25:08.089Z,72
2023-02-23T15:26:27.904Z,72
2023-02-23T15:27:08.128Z,72
2023-02-23T15:28:07.899Z,73
2023-02-23T15:29:08.742Z,73
2023-02-23T15:30:08.766Z,73
2023-02-23T15:31:09.363Z,73
2023-02-23T15:32:09.234Z,73
2023-02-23T15:33:08.404Z,73
2023-02-23T15:34:08.937Z,73
2023-02-23T15:35:08.464Z,73
2023-02-23T15:36:08.741Z,73
2023-02-23T15:37:08.700Z,73
2023-02-23T15:39:08.651Z,73
2023-02-23T15:41:07.788Z,73
2023-02-23T15:42:08.813Z,73
2023-02-23T15:43:08.719Z,73
2023-02-23T15:44:08.233Z,73
2023-02-23T15:45:08.321Z,73
2023-02-23T15:46:08.164Z,73
2023-02-23T15:47:08.659Z,73
2023-02-23T15:48:08.282Z,73
2023-02-23T15:49:08.109Z,73
2023-02-23T15:51:08.668Z,73
2023-02-23T15:52:08.514Z,73
2023-02-23T15:53:08.311Z,73
2023-02-23T15:54:07.994Z,73
2023-02-23T15:55:08.775Z,73
2023-02-23T15:56:07.968Z,74
2023-02-23T15:57:08.723Z,74